Time;durP1;ratioP1;P1;durP2;ratioP2;P2;SDS_P1;SDS_P2;PMS_P1;PMS_P2;Temp;Humidity;BMP_temperature;BMP_pressure;BME280_temperature;BME280_humidity;BME280_pressure;Samples;Min_cycle;Max_cycle;Signal;HPM_P1;HPM_P2
2022/06/20 00:00:19;;;;;;;9.45;8.50;;;;;;;;;;5069650;28;20409;-88
2022/06/20 00:02:47;;;;;;;10.50;8.65;;;;;;;;;;5078007;28;20398;-88
2022/06/20 00:05:15;;;;;;;11.80;8.25;;;;;;;;;;5077179;28;20902;-88
2022/06/20 00:07:41;;;;;;;11.60;8.50;;;;;;;;;;5077310;28;20479;-88
2022/06/20 00:10:07;;;;;;;13.10;8.53;;;;;;;;;;5070220;28;20385;-88
2022/06/20 00:12:33;;;;;;;10.55;8.68;;;;;;;;;;5071209;28;20456;-89
2022/06/20 00:15:00;;;;;;;12.50;8.20;;;;;;;;;;5077631;28;20376;-88
2022/06/20 00:17:26;;;;;;;10.90;8.60;;;;;;;;;;5073899;28;20407;-90
2022/06/20 00:19:53;;;;;;;15.55;8.77;;;;;;;;;;5078067;28;20408;-88
2022/06/20 00:22:20;;;;;;;11.93;8.55;;;;;;;;;;5078628;28;20376;-89
2022/06/20 00:24:46;;;;;;;12.90;8.33;;;;;;;;;;5078284;28;20398;-88
2022/06/20 00:27:12;;;;;;;12.60;9.07;;;;;;;;;;5078718;28;20384;-87
2022/06/20 00:29:39;;;;;;;12.20;8.73;;;;;;;;;;5079192;28;20375;-88
2022/06/20 00:32:06;;;;;;;11.57;8.85;;;;;;;;;;5078019;28;20380;-87
2022/06/20 00:34:33;;;;;;;14.55;9.45;;;;;;;;;;5078868;28;20384;-89
2022/06/20 00:36:59;;;;;;;9.98;8.90;;;;;;;;;;5074977;28;20504;-89
2022/06/20 00:39:25;;;;;;;10.13;8.80;;;;;;;;;;5067704;28;20388;-88
2022/06/20 00:41:51;;;;;;;11.82;8.65;;;;;;;;;;5063992;28;20476;-87
2022/06/20 00:44:22;;;;;;;10.63;8.70;;;;;;;;;;5077355;28;20441;-88
2022/06/20 00:46:51;;;;;;;10.43;8.32;;;;;;;;;;5077982;28;20380;-87
2022/06/20 00:49:23;;;;;;;10.00;8.52;;;;;;;;;;5075854;28;20471;-89
2022/06/20 00:51:52;;;;;;;11.90;8.60;;;;;;;;;;5077433;28;20745;-87
2022/06/20 00:54:22;;;;;;;11.77;8.68;;;;;;;;;;5076934;28;20384;-89
2022/06/20 00:56:57;;;;;;;11.55;9.18;;;;;;;;;;5072011;28;20376;-89
2022/06/20 00:59:29;;;;;;;11.23;8.75;;;;;;;;;;5065976;28;20380;-88
2022/06/20 01:01:55;;;;;;;9.82;8.30;;;;;;;;;;5078052;28;20419;-88
2022/06/20 01:04:28;;;;;;;10.68;8.70;;;;;;;;;;5075717;28;20380;-88
2022/06/20 01:06:56;;;;;;;9.75;8.82;;;;;;;;;;5075776;28;20376;-90
2022/06/20 01:09:25;;;;;;;12.18;8.85;;;;;;;;;;5075305;28;20877;-88
2022/06/20 01:11:53;;;;;;;11.10;8.83;;;;;;;;;;5067873;28;20809;-88
2022/06/20 01:14:21;;;;;;;13.05;8.85;;;;;;;;;;5069336;28;20407;-89
2022/06/20 01:16:47;;;;;;;10.93;8.48;;;;;;;;;;5075833;28;20394;-89
2022/06/20 01:19:18;;;;;;;10.50;8.77;;;;;;;;;;5076464;28;20383;-88
2022/06/20 01:21:44;;;;;;;11.00;8.57;;;;;;;;;;5075139;28;20404;-88
2022/06/20 01:24:14;;;;;;;12.25;8.77;;;;;;;;;;5074768;28;20416;-89
2022/06/20 01:26:55;;;;;;;11.43;9.05;;;;;;;;;;5074591;28;20719;-89
2022/06/20 01:29:22;;;;;;;12.48;9.10;;;;;;;;;;5075349;28;20387;-88
2022/06/20 01:31:51;;;;;;;13.43;8.88;;;;;;;;;;5067885;28;20400;-88
2022/06/20 01:34:18;;;;;;;12.97;8.90;;;;;;;;;;5068695;28;20405;-88
2022/06/20 01:39:30;;;;;;;9.50;8.55;;;;;;;;;;5073739;28;20378;-88
2022/06/20 01:44:43;;;;;;;10.40;8.82;;;;;;;;;;5074039;28;20402;-87
2022/06/20 01:47:10;;;;;;;12.32;9.05;;;;;;;;;;5074630;28;20376;-88
2022/06/20 01:49:36;;;;;;;11.67;9.20;;;;;;;;;;5073900;28;20376;-89
2022/06/20 01:52:07;;;;;;;10.02;9.00;;;;;;;;;;5076662;28;20387;-88
2022/06/20 01:54:36;;;;;;;12.98;8.90;;;;;;;;;;5071231;28;20492;-88
2022/06/20 01:57:02;;;;;;;9.70;8.65;;;;;;;;;;5058778;28;20388;-87
2022/06/20 01:59:33;;;;;;;10.27;8.70;;;;;;;;;;5074470;28;20551;-88
2022/06/20 02:01:59;;;;;;;10.15;8.90;;;;;;;;;;5073936;28;20462;-87
2022/06/20 02:04:27;;;;;;;10.30;9.18;;;;;;;;;;5075042;28;20375;-88
2022/06/20 02:06:54;;;;;;;10.67;9.27;;;;;;;;;;5074042;28;20459;-88
2022/06/20 02:09:21;;;;;;;13.88;9.10;;;;;;;;;;5073092;28;20380;-88
2022/06/20 02:11:48;;;;;;;12.60;9.60;;;;;;;;;;5068371;28;20428;-88
2022/06/20 02:14:23;;;;;;;9.70;8.80;;;;;;;;;;5069104;28;20375;-90
2022/06/20 02:16:53;;;;;;;10.38;9.00;;;;;;;;;;5074688;28;20370;-88
2022/06/20 02:19:24;;;;;;;10.80;9.40;;;;;;;;;;5067881;28;20383;-87
2022/06/20 02:21:51;;;;;;;11.18;9.05;;;;;;;;;;5073309;28;20407;-87
2022/06/20 02:24:19;;;;;;;12.30;9.40;;;;;;;;;;5074351;28;20912;-87
2022/06/20 02:26:46;;;;;;;10.75;9.63;;;;;;;;;;5071020;28;20452;-88
2022/06/20 02:29:20;;;;;;;13.90;9.77;;;;;;;;;;5074382;28;20371;-88
2022/06/20 02:31:47;;;;;;;12.13;9.68;;;;;;;;;;5073822;28;20388;-89
2022/06/20 02:34:13;;;;;;;15.77;10.43;;;;;;;;;;5074704;28;20387;-88
2022/06/20 02:36:40;;;;;;;13.13;9.73;;;;;;;;;;5074646;28;20387;-87
2022/06/20 02:39:06;;;;;;;12.20;9.70;;;;;;;;;;5073412;28;20398;-87
2022/06/20 02:41:33;;;;;;;10.95;9.63;;;;;;;;;;5074442;28;20404;-88
2022/06/20 02:44:06;;;;;;;10.18;9.10;;;;;;;;;;5074330;28;20372;-88
2022/06/20 02:46:32;;;;;;;10.70;9.30;;;;;;;;;;5075366;28;20455;-88
2022/06/20 02:48:59;;;;;;;11.23;9.60;;;;;;;;;;5072881;28;20761;-87
2022/06/20 02:51:28;;;;;;;10.98;9.43;;;;;;;;;;5074703;28;20437;-88
2022/06/20 02:53:59;;;;;;;10.45;9.45;;;;;;;;;;5073179;28;20383;-88
2022/06/20 02:56:26;;;;;;;10.77;9.68;;;;;;;;;;5065912;28;20396;-89
2022/06/20 02:58:54;;;;;;;11.63;9.90;;;;;;;;;;5073066;28;20380;-89
2022/06/20 03:01:34;;;;;;;10.35;9.23;;;;;;;;;;5065762;28;20465;-88
2022/06/20 03:04:01;;;;;;;10.20;9.15;;;;;;;;;;5071534;28;20371;-89
2022/06/20 03:06:29;;;;;;;11.00;9.88;;;;;;;;;;5073288;28;20467;-89
2022/06/20 03:08:56;;;;;;;14.75;9.80;;;;;;;;;;5074223;28;20403;-88
2022/06/20 03:11:23;;;;;;;13.13;9.65;;;;;;;;;;5059956;28;20390;-88
2022/06/20 03:13:49;;;;;;;10.70;9.60;;;;;;;;;;5074115;28;20384;-89
2022/06/20 03:16:17;;;;;;;13.18;9.80;;;;;;;;;;5073485;28;20380;-89
2022/06/20 03:18:48;;;;;;;10.93;9.35;;;;;;;;;;5073567;28;20387;-88
2022/06/20 03:21:15;;;;;;;10.65;9.43;;;;;;;;;;5073765;28;20738;-88
2022/06/20 03:23:41;;;;;;;10.52;9.52;;;;;;;;;;5072812;28;20407;-88
2022/06/20 03:26:12;;;;;;;10.50;9.40;;;;;;;;;;5071229;28;20391;-89
2022/06/20 03:28:38;;;;;;;11.93;9.00;;;;;;;;;;5073481;28;20380;-87
2022/06/20 03:31:05;;;;;;;12.07;9.40;;;;;;;;;;5072978;28;20388;-88
2022/06/20 03:33:31;;;;;;;11.02;8.63;;;;;;;;;;5073148;28;20388;-88
2022/06/20 03:35:59;;;;;;;10.65;8.68;;;;;;;;;;5073238;28;20380;-88
2022/06/20 03:38:25;;;;;;;10.65;8.73;;;;;;;;;;5073076;28;20462;-88
2022/06/20 03:40:51;;;;;;;9.88;8.30;;;;;;;;;;5073671;28;20396;-88
2022/06/20 03:43:20;;;;;;;14.77;8.90;;;;;;;;;;5073425;28;20380;-89
2022/06/20 03:46:21;;;;;;;11.33;8.60;;;;;;;;;;5071422;28;20380;-89
2022/06/20 03:48:59;;;;;;;10.88;8.65;;;;;;;;;;5069802;28;20406;-88
2022/06/20 03:51:28;;;;;;;9.70;8.90;;;;;;;;;;5066032;28;20394;-89
2022/06/20 03:54:08;;;;;;;10.95;8.95;;;;;;;;;;5071545;28;20388;-88
2022/06/20 03:56:49;;;;;;;12.27;8.88;;;;;;;;;;5064966;28;20380;-88
2022/06/20 03:59:21;;;;;;;12.32;8.90;;;;;;;;;;5071328;28;20749;-88
2022/06/20 04:02:05;;;;;;;9.52;8.55;;;;;;;;;;5070870;28;20443;-89
2022/06/20 04:04:34;;;;;;;10.88;9.27;;;;;;;;;;5073875;28;20371;-89
2022/06/20 04:07:07;;;;;;;11.23;8.95;;;;;;;;;;5073215;28;20439;-90
2022/06/20 04:12:27;;;;;;;13.00;9.23;;;;;;;;;;5068522;28;20375;-90
2022/06/20 04:14:58;;;;;;;14.23;8.68;;;;;;;;;;5076092;28;20371;-89
2022/06/20 04:20:23;;;;;;;11.05;8.20;;;;;;;;;;5075424;28;20445;-88
2022/06/20 04:22:50;;;;;;;11.10;7.90;;;;;;;;;;5062579;28;20416;-89
2022/06/20 04:25:24;;;;;;;10.45;7.03;;;;;;;;;;5063689;28;20470;-87
2022/06/20 04:27:54;;;;;;;9.60;6.82;;;;;;;;;;5074901;28;20390;-88
2022/06/20 04:30:25;;;;;;;7.88;6.22;;;;;;;;;;5075381;28;20475;-87
2022/06/20 04:32:59;;;;;;;9.77;6.47;;;;;;;;;;5075146;28;20379;-87
2022/06/20 04:35:27;;;;;;;9.82;5.35;;;;;;;;;;5072597;28;20387;-89
2022/06/20 04:38:06;;;;;;;8.85;5.15;;;;;;;;;;5067380;28;20762;-89
2022/06/20 04:40:37;;;;;;;7.70;4.85;;;;;;;;;;5073650;28;20403;-89
2022/06/20 04:43:09;;;;;;;7.90;5.10;;;;;;;;;;5075483;28;20427;-89
2022/06/20 04:45:41;;;;;;;7.80;5.68;;;;;;;;;;5076775;28;20388;-89
2022/06/20 04:48:10;;;;;;;9.00;6.47;;;;;;;;;;5075786;28;20902;-88
2022/06/20 04:50:36;;;;;;;10.00;7.13;;;;;;;;;;5076178;28;20479;-89
2022/06/20 04:53:05;;;;;;;13.02;7.32;;;;;;;;;;5075479;28;20436;-89
2022/06/20 04:55:32;;;;;;;9.00;7.27;;;;;;;;;;5076397;28;20421;-88
2022/06/20 04:57:59;;;;;;;12.63;6.57;;;;;;;;;;5075853;28;20390;-88
2022/06/20 05:00:27;;;;;;;10.57;6.97;;;;;;;;;;5075769;28;20494;-89
2022/06/20 05:02:54;;;;;;;16.90;7.30;;;;;;;;;;5075815;28;20386;-89
2022/06/20 05:05:22;;;;;;;8.70;6.80;;;;;;;;;;5075578;28;20395;-89
2022/06/20 05:07:49;;;;;;;9.63;7.43;;;;;;;;;;5075642;28;20382;-87
2022/06/20 05:10:15;;;;;;;13.73;8.60;;;;;;;;;;5075568;28;20379;-89
2022/06/20 05:12:56;;;;;;;10.90;8.20;;;;;;;;;;5075818;28;20391;-88
2022/06/20 05:15:41;;;;;;;10.23;8.40;;;;;;;;;;5069102;28;20392;-89
2022/06/20 05:18:25;;;;;;;11.57;7.80;;;;;;;;;;5073918;28;20376;-88
2022/06/20 05:20:53;;;;;;;10.40;7.28;;;;;;;;;;5074796;28;20426;-90
2022/06/20 05:23:31;;;;;;;12.52;6.68;;;;;;;;;;5074987;28;20376;-89
2022/06/20 05:25:58;;;;;;;9.23;6.00;;;;;;;;;;5075574;28;20410;-89
2022/06/20 05:28:25;;;;;;;7.70;6.07;;;;;;;;;;5074634;28;20376;-89
2022/06/20 05:30:51;;;;;;;10.63;6.15;;;;;;;;;;5075495;28;20421;-88
2022/06/20 05:33:47;;;;;;;10.10;5.75;;;;;;;;;;5073832;28;20388;-88
2022/06/20 05:36:13;;;;;;;9.65;5.28;;;;;;;;;;5075193;28;20413;-88
2022/06/20 05:38:56;;;;;;;;;;;;;;;;;;;;;
2022/06/20 05:41:23;;;;;;;6.82;5.43;;;;;;;;;;5075986;28;20938;-89
2022/06/20 05:43:49;;;;;;;9.80;5.50;;;;;;;;;;5076458;28;20783;-87
2022/06/20 05:46:26;;;;;;;7.85;4.55;;;;;;;;;;5075778;28;20435;-86
2022/06/20 05:48:53;;;;;;;7.07;4.50;;;;;;;;;;5076640;28;20875;-88
2022/06/20 05:51:21;;;;;;;8.98;4.30;;;;;;;;;;5065533;28;20943;-87
2022/06/20 05:53:50;;;;;;;9.23;3.92;;;;;;;;;;5072895;28;20395;-87
2022/06/20 05:56:28;;;;;;;7.57;4.28;;;;;;;;;;5067834;28;20415;-88
2022/06/20 05:58:55;;;;;;;7.10;4.60;;;;;;;;;;5072849;28;20399;-87
2022/06/20 06:01:32;;;;;;;5.38;3.80;;;;;;;;;;5062966;28;20908;-87
2022/06/20 06:04:17;;;;;;;7.68;4.20;;;;;;;;;;5074176;28;20438;-87
2022/06/20 06:06:51;;;;;;;5.43;3.60;;;;;;;;;;5062782;28;20370;-87
2022/06/20 06:09:19;;;;;;;4.25;3.83;;;;;;;;;;5070545;28;20467;-87
2022/06/20 06:11:57;;;;;;;8.07;3.92;;;;;;;;;;5062992;28;20864;-86
2022/06/20 06:14:27;;;;;;;5.97;3.58;;;;;;;;;;5075811;28;20438;-86
2022/06/20 06:16:56;;;;;;;5.18;3.70;;;;;;;;;;5075580;28;20444;-87
2022/06/20 06:19:22;;;;;;;6.38;3.30;;;;;;;;;;5073399;28;20395;-87
2022/06/20 06:21:50;;;;;;;7.28;3.67;;;;;;;;;;5073459;28;21014;-86
2022/06/20 06:24:17;;;;;;;7.28;3.90;;;;;;;;;;5073222;28;20411;-88
2022/06/20 06:26:45;;;;;;;6.63;4.40;;;;;;;;;;5071134;28;20396;-87
2022/06/20 06:29:17;;;;;;;6.45;4.75;;;;;;;;;;5062628;28;20381;-86
2022/06/20 06:31:46;;;;;;;10.27;4.95;;;;;;;;;;5069665;28;20379;-88
2022/06/20 06:34:30;;;;;;;6.40;5.80;;;;;;;;;;5060203;28;20472;-87
2022/06/20 06:37:01;;;;;;;9.57;5.95;;;;;;;;;;5077861;28;20480;-92
2022/06/20 06:39:48;;;;;;;6.88;4.90;;;;;;;;;;5073139;28;20376;-91
2022/06/20 06:42:15;;;;;;;10.23;4.28;;;;;;;;;;5068726;28;20391;-92
2022/06/20 06:44:43;;;;;;;5.97;3.55;;;;;;;;;;5062561;28;20413;-92
2022/06/20 06:47:16;;;;;;;7.20;3.73;;;;;;;;;;5071238;28;20849;-91
2022/06/20 06:49:45;;;;;;;6.47;3.78;;;;;;;;;;5074502;28;20478;-91
2022/06/20 06:52:14;;;;;;;5.10;3.45;;;;;;;;;;5074601;28;20853;-92
2022/06/20 06:54:46;;;;;;;6.57;3.47;;;;;;;;;;5069602;28;20419;-92
2022/06/20 06:57:30;;;;;;;6.53;3.30;;;;;;;;;;5068157;28;20882;-92
2022/06/20 07:00:05;;;;;;;6.63;3.50;;;;;;;;;;5067319;28;20926;-90
2022/06/20 07:02:42;;;;;;;6.30;3.55;;;;;;;;;;5077997;28;20447;-91
2022/06/20 07:05:16;;;;;;;5.15;3.15;;;;;;;;;;5079304;28;20425;-90
2022/06/20 07:07:48;;;;;;;5.63;3.10;;;;;;;;;;5078605;28;20811;-91
2022/06/20 07:10:19;;;;;;;5.30;2.83;;;;;;;;;;5078399;28;20852;-91
2022/06/20 07:12:48;;;;;;;4.50;2.83;;;;;;;;;;5061828;28;20482;-90
2022/06/20 07:15:21;;;;;;;9.70;3.42;;;;;;;;;;5077628;28;20380;-91
2022/06/20 07:17:47;;;;;;;4.47;3.00;;;;;;;;;;5078216;28;20384;-91
2022/06/20 07:20:14;;;;;;;3.80;2.92;;;;;;;;;;5079170;28;20457;-90
2022/06/20 07:22:41;;;;;;;4.50;2.90;;;;;;;;;;5079211;28;20501;-92
2022/06/20 07:25:13;;;;;;;5.82;2.70;;;;;;;;;;5079480;28;20379;-90
2022/06/20 07:28:00;;;;;;;6.80;2.90;;;;;;;;;;5079224;28;20425;-91
2022/06/20 07:30:29;;;;;;;6.57;3.13;;;;;;;;;;5075076;28;20375;-91
2022/06/20 07:32:56;;;;;;;7.18;3.20;;;;;;;;;;5074016;28;20379;-90
2022/06/20 07:35:26;;;;;;;7.78;2.95;;;;;;;;;;5074266;28;20383;-91
2022/06/20 07:37:55;;;;;;;6.25;2.80;;;;;;;;;;5074318;28;20372;-90
2022/06/20 07:40:24;;;;;;;7.10;2.75;;;;;;;;;;5073570;28;20407;-91
2022/06/20 07:42:53;;;;;;;6.05;2.95;;;;;;;;;;5075304;28;20382;-90
2022/06/20 07:45:24;;;;;;;6.73;3.03;;;;;;;;;;5078502;28;20461;-90
2022/06/20 07:47:50;;;;;;;7.97;2.83;;;;;;;;;;5079199;28;20367;-89
2022/06/20 07:50:18;;;;;;;5.93;3.00;;;;;;;;;;5077731;28;20387;-90
2022/06/20 07:52:48;;;;;;;7.75;2.70;;;;;;;;;;5077533;28;20441;-90
2022/06/20 07:55:17;;;;;;;3.77;2.70;;;;;;;;;;5072076;28;20394;-91
2022/06/20 07:57:55;;;;;;;4.28;2.80;;;;;;;;;;5079084;28;20466;-90
2022/06/20 08:00:23;;;;;;;8.82;2.80;;;;;;;;;;5078833;28;20411;-89
2022/06/20 08:02:54;;;;;;;10.13;2.72;;;;;;;;;;5079837;28;20430;-90
2022/06/20 08:05:41;;;;;;;5.75;2.83;;;;;;;;;;5077856;28;20387;-91
2022/06/20 08:08:27;;;;;;;13.18;2.63;;;;;;;;;;5068371;28;20386;-91
2022/06/20 08:10:57;;;;;;;5.05;2.70;;;;;;;;;;5076785;28;20387;-91
2022/06/20 08:13:30;;;;;;;6.47;2.72;;;;;;;;;;5078163;28;20383;-91
2022/06/20 08:16:05;;;;;;;8.80;2.80;;;;;;;;;;5075225;28;20375;-91
2022/06/20 08:18:31;;;;;;;5.47;2.50;;;;;;;;;;5064944;28;20467;-92
2022/06/20 08:20:58;;;;;;;4.40;2.33;;;;;;;;;;5064839;28;20945;-90
2022/06/20 08:23:29;;;;;;;4.78;2.47;;;;;;;;;;5076862;28;20453;-90
2022/06/20 08:25:59;;;;;;;2.83;2.20;;;;;;;;;;5074912;28;20767;-91
2022/06/20 08:28:40;;;;;;;7.50;2.70;;;;;;;;;;5077466;28;20391;-90
2022/06/20 08:31:41;;;;;;;5.97;2.80;;;;;;;;;;5077864;28;20368;-91
2022/06/20 08:34:14;;;;;;;5.63;2.38;;;;;;;;;;5075118;28;20417;-91
2022/06/20 08:36:48;;;;;;;5.07;2.40;;;;;;;;;;5075725;28;20383;-90
2022/06/20 08:39:28;;;;;;;5.35;2.50;;;;;;;;;;5073495;28;20441;-90
2022/06/20 08:42:06;;;;;;;5.15;2.67;;;;;;;;;;5065672;28;20469;-89
2022/06/20 08:44:51;;;;;;;6.18;2.58;;;;;;;;;;5077944;28;20368;-90
2022/06/20 08:47:26;;;;;;;4.68;2.60;;;;;;;;;;5080704;28;20379;-92
2022/06/20 08:50:11;;;;;;;6.13;2.60;;;;;;;;;;5079734;28;20372;-90
2022/06/20 08:52:43;;;;;;;5.55;2.35;;;;;;;;;;5078353;28;20368;-90
2022/06/20 08:55:12;;;;;;;3.13;2.20;;;;;;;;;;5070898;28;20381;-91
2022/06/20 08:57:41;;;;;;;3.15;2.30;;;;;;;;;;5064444;28;20439;-90
2022/06/20 09:00:11;;;;;;;6.20;2.50;;;;;;;;;;5070137;28;20413;-90
2022/06/20 09:02:48;;;;;;;4.60;2.33;;;;;;;;;;5080019;28;20788;-91
2022/06/20 09:05:23;;;;;;;6.30;2.45;;;;;;;;;;5082577;28;20380;-92
2022/06/20 09:08:04;;;;;;;5.35;2.53;;;;;;;;;;5079015;28;20372;-91
2022/06/20 09:10:40;;;;;;;4.15;2.60;;;;;;;;;;5072344;28;20382;-89
2022/06/20 09:13:25;;;;;;;5.40;2.63;;;;;;;;;;5066246;28;20375;-90
2022/06/20 09:16:09;;;;;;;6.05;2.55;;;;;;;;;;5081200;28;20440;-91
2022/06/20 09:18:45;;;;;;;9.90;2.85;;;;;;;;;;5075524;28;20388;-90
2022/06/20 09:21:18;;;;;;;11.88;2.97;;;;;;;;;;5071798;28;20952;-92
2022/06/20 09:23:57;;;;;;;5.50;2.60;;;;;;;;;;5078738;28;20898;-89
2022/06/20 09:26:41;;;;;;;8.33;3.20;;;;;;;;;;5078601;28;20406;-89
2022/06/20 09:29:20;;;;;;;5.65;2.67;;;;;;;;;;5076196;28;20371;-90
2022/06/20 09:31:46;;;;;;;5.47;2.75;;;;;;;;;;5074595;28;20386;-92
2022/06/20 09:34:21;;;;;;;13.27;2.88;;;;;;;;;;5075591;28;20380;-86
2022/06/20 09:36:47;;;;;;;5.82;2.53;;;;;;;;;;5076201;28;20406;-88
2022/06/20 09:39:19;;;;;;;5.45;2.70;;;;;;;;;;5075930;28;20857;-88
2022/06/20 09:41:53;;;;;;;5.03;2.78;;;;;;;;;;5074904;28;20920;-88
2022/06/20 09:44:24;;;;;;;10.27;3.00;;;;;;;;;;5075220;28;20846;-88
2022/06/20 09:46:51;;;;;;;8.32;3.10;;;;;;;;;;5077283;28;20541;-88
2022/06/20 09:49:17;;;;;;;6.13;2.53;;;;;;;;;;5074862;28;20376;-89
2022/06/20 09:51:56;;;;;;;5.10;2.40;;;;;;;;;;5074855;28;20848;-87
2022/06/20 09:54:40;;;;;;;10.55;2.85;;;;;;;;;;5072579;28;20376;-89
2022/06/20 09:57:15;;;;;;;4.97;2.40;;;;;;;;;;5063329;28;20413;-91
2022/06/20 09:59:42;;;;;;;11.40;3.08;;;;;;;;;;5070614;28;20391;-88
2022/06/20 10:02:26;;;;;;;14.45;3.38;;;;;;;;;;5065717;28;20922;-88
2022/06/20 10:05:02;;;;;;;11.32;2.63;;;;;;;;;;5057622;28;20373;-88
2022/06/20 10:07:47;;;;;;;3.90;2.63;;;;;;;;;;5058737;28;20388;-88
2022/06/20 10:10:23;;;;;;;4.57;2.50;;;;;;;;;;5064414;28;20370;-88
2022/06/20 10:12:53;;;;;;;4.20;2.90;;;;;;;;;;5071171;28;20412;-88
2022/06/20 10:15:22;;;;;;;5.35;2.80;;;;;;;;;;5063890;28;20402;-88
2022/06/20 10:18:04;;;;;;;5.32;2.50;;;;;;;;;;5061375;28;20399;-91
2022/06/20 10:20:48;;;;;;;4.00;2.50;;;;;;;;;;5071000;28;20401;-89
2022/06/20 10:23:23;;;;;;;6.20;2.50;;;;;;;;;;5074058;28;20371;-88
2022/06/20 10:26:02;;;;;;;5.00;2.60;;;;;;;;;;5073394;28;20392;-88
2022/06/20 10:28:37;;;;;;;4.53;2.27;;;;;;;;;;5070474;28;20376;-88
2022/06/20 10:31:12;;;;;;;6.70;2.47;;;;;;;;;;5067154;28;20397;-89
2022/06/20 10:33:53;;;;;;;2.80;2.30;;;;;;;;;;5056658;28;20384;-87
2022/06/20 10:36:21;;;;;;;6.03;2.67;;;;;;;;;;5057166;28;20818;-87
2022/06/20 10:38:47;;;;;;;4.87;2.27;;;;;;;;;;5061792;28;20933;-89
2022/06/20 10:41:13;;;;;;;5.63;2.43;;;;;;;;;;5061183;28;20490;-89
2022/06/20 10:43:43;;;;;;;4.03;2.20;;;;;;;;;;5069655;28;20380;-88
2022/06/20 10:46:11;;;;;;;3.57;2.27;;;;;;;;;;5074842;28;20380;-91
2022/06/20 10:48:47;;;;;;;3.92;2.00;;;;;;;;;;5057199;28;20415;-90
2022/06/20 10:51:17;;;;;;;7.47;2.80;;;;;;;;;;5064382;28;20386;-93
2022/06/20 10:53:51;;;;;;;6.75;2.28;;;;;;;;;;5074080;28;20378;-91
2022/06/20 10:56:23;;;;;;;3.97;2.40;;;;;;;;;;5067712;28;20466;-93
2022/06/20 10:58:53;;;;;;;3.08;2.00;;;;;;;;;;5076674;28;20384;-92
2022/06/20 11:01:25;;;;;;;5.03;2.10;;;;;;;;;;5074393;28;20414;-93
2022/06/20 11:03:57;;;;;;;4.15;2.30;;;;;;;;;;5074779;28;20877;-92
2022/06/20 11:06:36;;;;;;;5.10;2.50;;;;;;;;;;5056753;28;20735;-93
2022/06/20 11:09:08;;;;;;;4.03;2.20;;;;;;;;;;5059234;28;20381;-92
2022/06/20 11:11:43;;;;;;;10.70;2.67;;;;;;;;;;5059829;28;20788;-91
2022/06/20 11:14:20;;;;;;;3.03;2.08;;;;;;;;;;5060401;28;20397;-91
2022/06/20 11:16:54;;;;;;;3.35;2.17;;;;;;;;;;5064196;28;20379;-92
2022/06/20 11:19:41;;;;;;;3.85;1.95;;;;;;;;;;5079432;28;20768;-92
2022/06/20 11:22:07;;;;;;;2.22;1.92;;;;;;;;;;5079423;28;20447;-90
2022/06/20 11:24:42;;;;;;;3.42;2.13;;;;;;;;;;5078689;28;20776;-94
2022/06/20 11:27:14;;;;;;;4.60;2.00;;;;;;;;;;5081717;28;20379;-94
2022/06/20 11:29:49;;;;;;;4.00;1.90;;;;;;;;;;5072652;28;20401;-91
2022/06/20 11:32:36;;;;;;;6.90;2.17;;;;;;;;;;5082394;28;20403;-93
2022/06/20 11:35:05;;;;;;;3.58;1.92;;;;;;;;;;5077379;28;20869;-92
2022/06/20 11:37:43;;;;;;;4.00;1.85;;;;;;;;;;5078931;28;20384;-90
2022/06/20 11:40:09;;;;;;;3.50;2.10;;;;;;;;;;5067088;28;20610;-92
2022/06/20 11:43:01;;;;;;;4.07;2.10;;;;;;;;;;5066790;28;20385;-90
2022/06/20 11:45:43;;;;;;;4.80;1.80;;;;;;;;;;5062652;28;20397;-92
2022/06/20 11:48:30;;;;;;;2.83;1.60;;;;;;;;;;5070470;28;20875;-92
2022/06/20 11:50:56;;;;;;;3.03;2.00;;;;;;;;;;5078311;28;20387;-91
2022/06/20 11:53:31;;;;;;;4.78;2.10;;;;;;;;;;5077766;28;20383;-90
2022/06/20 11:56:05;;;;;;;5.13;2.05;;;;;;;;;;5065148;28;20383;-91
2022/06/20 11:58:50;;;;;;;3.37;1.90;;;;;;;;;;5078469;28;20384;-90
2022/06/20 12:01:20;;;;;;;5.03;1.63;;;;;;;;;;5077038;28;20443;-90
2022/06/20 12:03:55;;;;;;;2.33;1.65;;;;;;;;;;5079165;28;20467;-91
2022/06/20 12:06:31;;;;;;;3.78;1.90;;;;;;;;;;5078349;28;20418;-91
2022/06/20 12:09:04;;;;;;;1.92;1.58;;;;;;;;;;5078558;28;20434;-90
2022/06/20 12:11:30;;;;;;;3.43;1.43;;;;;;;;;;5078596;28;20401;-91
2022/06/20 12:14:14;;;;;;;4.68;2.00;;;;;;;;;;5068381;28;20904;-92
2022/06/20 12:16:40;;;;;;;5.60;1.90;;;;;;;;;;5077179;28;20448;-91
2022/06/20 12:25:14;;;;;;;3.65;1.65;;;;;;;;;;5077833;28;20422;-91
2022/06/20 12:27:42;;;;;;;4.15;2.00;;;;;;;;;;5075657;28;20375;-89
2022/06/20 12:30:12;;;;;;;2.20;1.88;;;;;;;;;;5062676;28;20372;-92
2022/06/20 12:32:44;;;;;;;2.90;1.63;;;;;;;;;;5077327;28;20427;-90
2022/06/20 12:35:23;;;;;;;4.50;1.85;;;;;;;;;;5076376;28;20372;-88
2022/06/20 12:38:21;;;;;;;2.72;1.88;;;;;;;;;;5076646;28;20383;-88
2022/06/20 12:40:49;;;;;;;3.67;1.73;;;;;;;;;;5068826;28;20415;-89
2022/06/20 12:43:21;;;;;;;4.40;1.80;;;;;;;;;;5078066;28;20411;-91
2022/06/20 12:46:06;;;;;;;3.70;1.97;;;;;;;;;;5072157;28;20369;-90
2022/06/20 12:48:32;;;;;;;3.13;1.80;;;;;;;;;;5072730;28;20407;-90
2022/06/20 12:51:05;;;;;;;4.57;2.17;;;;;;;;;;5076984;28;20376;-89
2022/06/20 12:53:43;;;;;;;3.15;2.00;;;;;;;;;;5061450;28;20511;-89
2022/06/20 12:56:21;;;;;;;3.85;1.80;;;;;;;;;;5068118;28;20379;-89
2022/06/20 12:59:00;;;;;;;3.33;2.00;;;;;;;;;;5068360;28;20384;-90
2022/06/20 13:01:44;;;;;;;4.38;2.25;;;;;;;;;;5059900;28;20403;-88
2022/06/20 13:04:42;;;;;;;3.35;2.03;;;;;;;;;;5056602;28;20378;-91
2022/06/20 13:07:08;;;;;;;4.47;2.10;;;;;;;;;;5063141;28;20381;-90
2022/06/20 13:09:40;;;;;;;5.05;2.08;;;;;;;;;;5057525;28;20434;-91
2022/06/20 13:12:24;;;;;;;7.55;2.30;;;;;;;;;;5063520;28;20920;-90
2022/06/20 13:15:09;;;;;;;4.78;2.00;;;;;;;;;;5060473;28;20464;-89
2022/06/20 13:17:38;;;;;;;3.40;1.90;;;;;;;;;;5076158;28;20372;-89
2022/06/20 13:20:24;;;;;;;5.20;2.40;;;;;;;;;;5075816;28;20467;-90
2022/06/20 13:23:06;;;;;;;3.83;1.88;;;;;;;;;;5060417;28;20473;-91
2022/06/20 13:25:32;;;;;;;4.45;2.28;;;;;;;;;;5061070;28;20862;-91
2022/06/20 13:28:15;;;;;;;5.15;2.03;;;;;;;;;;5060679;28;20870;-92
2022/06/20 13:30:47;;;;;;;4.60;2.37;;;;;;;;;;5070809;28;20423;-91
2022/06/20 13:33:13;;;;;;;4.13;2.00;;;;;;;;;;5074822;28;20412;-91
2022/06/20 13:35:49;;;;;;;9.47;2.30;;;;;;;;;;5062710;28;20387;-91
2022/06/20 13:38:23;;;;;;;5.30;2.40;;;;;;;;;;5075776;28;20396;-91
2022/06/20 13:40:52;;;;;;;5.15;2.50;;;;;;;;;;5075232;28;20407;-91
2022/06/20 13:43:24;;;;;;;4.97;2.45;;;;;;;;;;5075596;28;20441;-92
2022/06/20 13:45:59;;;;;;;4.47;2.43;;;;;;;;;;5067332;28;20394;-92
2022/06/20 13:48:30;;;;;;;3.90;2.20;;;;;;;;;;5080493;28;20868;-92
2022/06/20 13:51:00;;;;;;;2.83;2.10;;;;;;;;;;5072866;28;20395;-90
2022/06/20 13:53:32;;;;;;;6.95;2.30;;;;;;;;;;5079385;28;20388;-91
2022/06/20 13:56:19;;;;;;;5.15;2.22;;;;;;;;;;5059986;28;20387;-92
2022/06/20 13:58:53;;;;;;;5.80;2.10;;;;;;;;;;5084884;28;20455;-90
2022/06/20 14:01:20;;;;;;;3.28;1.92;;;;;;;;;;5076212;28;20434;-91
2022/06/20 14:03:55;;;;;;;4.30;2.22;;;;;;;;;;5074840;28;20407;-92
2022/06/20 14:06:22;;;;;;;3.67;2.20;;;;;;;;;;5062405;28;20376;-92
2022/06/20 14:08:51;;;;;;;3.40;2.00;;;;;;;;;;5076962;28;20382;-92
2022/06/20 14:11:33;;;;;;;4.18;2.20;;;;;;;;;;5074468;28;20382;-92
2022/06/20 14:14:01;;;;;;;3.20;2.17;;;;;;;;;;5071445;28;20413;-89
2022/06/20 14:16:29;;;;;;;3.47;2.17;;;;;;;;;;5067225;28;20387;-91
2022/06/20 14:18:59;;;;;;;9.87;2.50;;;;;;;;;;5060702;28;20400;-92
2022/06/20 14:21:33;;;;;;;3.63;2.33;;;;;;;;;;5058483;28;20412;-89
2022/06/20 14:23:59;;;;;;;3.90;2.80;;;;;;;;;;5062370;28;20381;-91
2022/06/20 14:26:34;;;;;;;4.97;2.58;;;;;;;;;;5067179;28;20385;-90
2022/06/20 14:29:01;;;;;;;3.87;2.80;;;;;;;;;;5063850;28;20377;-89
2022/06/20 14:31:39;;;;;;;3.13;2.25;;;;;;;;;;5068108;28;20391;-85
2022/06/20 14:34:21;;;;;;;5.67;2.60;;;;;;;;;;5068068;28;20387;-86
2022/06/20 14:36:47;;;;;;;5.35;2.50;;;;;;;;;;5059870;28;20400;-87
2022/06/20 14:39:31;;;;;;;4.90;2.70;;;;;;;;;;5062965;28;20475;-86
2022/06/20 14:42:09;;;;;;;4.35;2.40;;;;;;;;;;5075548;28;20486;-86
2022/06/20 14:44:39;;;;;;;4.60;2.33;;;;;;;;;;5073526;28;20467;-88
2022/06/20 14:47:25;;;;;;;4.00;2.70;;;;;;;;;;5064401;28;20443;-87
2022/06/20 14:50:14;;;;;;;4.33;2.40;;;;;;;;;;5062831;28;20416;-87
2022/06/20 14:52:53;;;;;;;5.88;2.45;;;;;;;;;;5061918;28;20404;-86
2022/06/20 14:55:34;;;;;;;6.50;2.30;;;;;;;;;;5058448;28;20385;-86
2022/06/20 14:58:00;;;;;;;4.85;2.30;;;;;;;;;;5071647;28;20462;-87
2022/06/20 15:00:34;;;;;;;4.10;2.30;;;;;;;;;;5069830;28;20502;-87
2022/06/20 15:03:22;;;;;;;3.17;2.30;;;;;;;;;;5071089;28;23025;-86
2022/06/20 15:05:53;;;;;;;5.97;2.30;;;;;;;;;;5063504;28;20865;-86
2022/06/20 15:08:26;;;;;;;5.20;2.42;;;;;;;;;;5071270;28;20441;-86
2022/06/20 15:11:06;;;;;;;4.25;2.10;;;;;;;;;;5056399;28;20381;-86
2022/06/20 15:13:32;;;;;;;4.93;2.75;;;;;;;;;;5054527;28;20374;-87
2022/06/20 15:16:08;;;;;;;3.97;2.33;;;;;;;;;;5063027;28;20517;-86
2022/06/20 15:18:40;;;;;;;3.70;2.35;;;;;;;;;;5053684;28;20399;-86
2022/06/20 15:21:12;;;;;;;2.58;2.20;;;;;;;;;;5064360;28;20405;-86
2022/06/20 15:23:41;;;;;;;5.00;2.60;;;;;;;;;;5065148;28;20729;-85
2022/06/20 15:26:14;;;;;;;2.95;2.30;;;;;;;;;;5068431;28;20431;-85
2022/06/20 15:28:44;;;;;;;2.60;2.08;;;;;;;;;;5059957;28;20384;-85